createdAt,value
2016-03-29T00:00:01.364Z,945.42
2016-03-29T00:01:01.398Z,945.39
2016-03-29T00:02:01.401Z,945.36
2016-03-29T00:03:01.420Z,945.29
2016-03-29T00:04:01.423Z,945.33
2016-03-29T00:05:01.457Z,945.33
2016-03-29T00:06:01.459Z,945.34
2016-03-29T00:07:01.478Z,945.34
2016-03-29T00:08:01.480Z,945.32
2016-03-29T00:09:01.499Z,945.31
2016-03-29T00:10:01.516Z,945.32
2016-03-29T00:11:01.536Z,945.37
2016-03-29T00:12:01.538Z,945.36
2016-03-29T00:13:01.556Z,945.34
2016-03-29T00:14:01.575Z,945.34
2016-03-29T00:15:01.577Z,945.39
2016-03-29T00:16:01.595Z,945.25
2016-03-29T00:17:01.613Z,945.32
2016-03-29T00:18:01.632Z,945.45
2016-03-29T00:19:01.635Z,945.34
2016-03-29T00:20:01.653Z,945.27
2016-03-29T00:21:01.671Z,945.29
2016-03-29T00:22:01.690Z,945.22
2016-03-29T00:23:01.692Z,945.2
2016-03-29T00:24:01.711Z,945.35
2016-03-29T00:25:01.729Z,945.37
2016-03-29T00:26:01.748Z,945.29
2016-03-29T00:27:01.750Z,945.31
2016-03-29T00:28:01.768Z,945.33
2016-03-29T00:29:01.787Z,945.32
2016-03-29T00:30:01.805Z,945.28
2016-03-29T00:31:01.808Z,945.18
2016-03-29T00:32:01.825Z,945.21
2016-03-29T00:33:01.845Z,945.19
2016-03-29T00:34:01.862Z,945.17
2016-03-29T00:35:01.865Z,945.26
2016-03-29T00:36:01.884Z,945.13
2016-03-29T00:37:01.902Z,945.19
2016-03-29T00:38:01.905Z,945.2
2016-03-29T00:39:01.922Z,945.14
2016-03-29T00:40:01.942Z,945.18
2016-03-29T00:41:01.960Z,945.15
2016-03-29T00:42:01.978Z,945.14
2016-03-29T00:43:01.996Z,945.14
2016-03-29T00:44:01.999Z,945.15
2016-03-29T00:45:02.002Z,945.08
2016-03-29T00:46:02.019Z,945.08
2016-03-29T00:47:02.039Z,945.1
2016-03-29T00:48:02.041Z,945.15
2016-03-29T00:49:02.060Z,945.09
2016-03-29T00:50:02.077Z,945.1
2016-03-29T00:51:02.096Z,945.07
2016-03-29T00:52:02.115Z,945.05
2016-03-29T00:53:02.117Z,945.11
2016-03-29T00:54:02.135Z,945.12
2016-03-29T00:55:02.138Z,945.12
2016-03-29T00:56:02.188Z,945.13
2016-03-29T00:57:02.174Z,945.15
2016-03-29T00:58:02.193Z,945.19
2016-03-29T00:59:02.196Z,945.21
2016-03-29T01:00:02.214Z,945.17
2016-03-29T01:01:02.231Z,945.22
2016-03-29T01:02:02.235Z,945.22
2016-03-29T01:03:02.253Z,945.19
2016-03-29T01:04:02.272Z,945.26
2016-03-29T01:05:02.274Z,945.21
2016-03-29T01:06:02.292Z,945.21
2016-03-29T01:07:02.311Z,945.2
2016-03-29T01:08:02.319Z,945.24
2016-03-29T01:09:02.336Z,945.24
2016-03-29T01:10:02.371Z,945.21
2016-03-29T01:11:02.358Z,945.19
2016-03-29T01:12:02.376Z,945.27
2016-03-29T01:13:02.394Z,945.14
2016-03-29T01:14:02.397Z,945.1
2016-03-29T01:15:02.416Z,945.2
2016-03-29T01:16:02.433Z,945.2
2016-03-29T01:17:02.452Z,945.15
2016-03-29T01:18:02.455Z,945.13
2016-03-29T01:19:02.473Z,945.14
2016-03-29T01:20:02.476Z,945.13
2016-03-29T01:21:02.493Z,945.1
2016-03-29T01:22:02.513Z,945.16
2016-03-29T01:23:02.531Z,945.14
2016-03-29T01:24:02.534Z,945.19
2016-03-29T01:25:02.567Z,945.19
2016-03-29T01:26:02.570Z,945.19
2016-03-29T01:27:02.573Z,945.21
2016-03-29T01:28:02.590Z,945.15
2016-03-29T01:29:02.609Z,945.18
2016-03-29T01:30:02.612Z,945.22
2016-03-29T01:31:02.630Z,945.25
2016-03-29T01:32:02.664Z,945.29
2016-03-29T01:33:02.651Z,945.25
2016-03-29T01:34:02.670Z,945.31
2016-03-29T01:35:02.672Z,945.33
2016-03-29T01:36:02.705Z,945.36
2016-03-29T01:37:02.708Z,945.35
2016-03-29T01:38:02.727Z,945.32
2016-03-29T01:39:02.730Z,945.31
2016-03-29T01:40:02.747Z,945.39
2016-03-29T01:41:02.829Z,945.38
2016-03-29T01:42:02.769Z,945.31
2016-03-29T01:43:02.788Z,945.24
2016-03-29T01:44:02.821Z,945.31
2016-03-29T01:45:02.808Z,945.26
2016-03-29T01:46:02.827Z,945.19
2016-03-29T01:47:02.845Z,945.25
2016-03-29T01:48:02.848Z,945.21
2016-03-29T01:49:02.865Z,945.24
2016-03-29T01:50:02.885Z,945.31
2016-03-29T01:51:02.902Z,945.31
2016-03-29T01:52:02.905Z,945.25
2016-03-29T01:53:02.924Z,945.28
2016-03-29T01:54:02.926Z,945.28
2016-03-29T01:55:02.945Z,945.33
2016-03-29T01:56:02.962Z,945.28
2016-03-29T01:57:02.966Z,945.26
2016-03-29T01:58:02.984Z,945.26
2016-03-29T01:59:03.003Z,945.37
2016-03-29T02:00:03.005Z,945.35
2016-03-29T02:01:03.023Z,945.38
2016-03-29T02:02:03.042Z,945.32
2016-03-29T02:03:03.059Z,945.3
2016-03-29T02:04:03.062Z,945.33
2016-03-29T02:05:03.081Z,945.31
2016-03-29T02:06:03.084Z,945.29
2016-03-29T02:07:03.102Z,945.27
2016-03-29T02:08:03.120Z,945.31
2016-03-29T02:09:03.139Z,945.23
2016-03-29T02:10:03.142Z,945.24
2016-03-29T02:11:03.206Z,945.24
2016-03-29T02:12:03.177Z,945.21
2016-03-29T02:13:03.180Z,945.27
2016-03-29T02:14:03.199Z,945.3
2016-03-29T02:15:03.217Z,945.32
2016-03-29T02:16:03.220Z,945.34
2016-03-29T02:17:03.239Z,945.32
2016-03-29T02:18:03.257Z,945.4
2016-03-29T02:19:03.259Z,945.37
2016-03-29T02:20:03.277Z,945.37
2016-03-29T02:21:03.296Z,945.32
2016-03-29T02:22:03.298Z,945.3
2016-03-29T02:23:03.317Z,945.31
2016-03-29T02:24:03.334Z,945.32
2016-03-29T02:25:03.354Z,945.35
2016-03-29T02:26:03.387Z,945.27
2016-03-29T02:27:03.374Z,945.3
2016-03-29T02:28:03.377Z,945.3
2016-03-29T02:29:03.411Z,945.3
2016-03-29T02:30:03.414Z,945.37
2016-03-29T02:31:03.431Z,945.37
2016-03-29T02:32:03.434Z,945.4
2016-03-29T02:33:03.453Z,945.41
2016-03-29T02:34:03.472Z,945.3
2016-03-29T02:35:03.474Z,945.36
2016-03-29T02:36:03.492Z,945.35
2016-03-29T02:37:03.511Z,945.3
2016-03-29T02:38:03.528Z,945.34
2016-03-29T02:39:03.531Z,945.36
2016-03-29T02:40:03.550Z,945.42
2016-03-29T02:41:03.553Z,945.36
2016-03-29T02:42:03.571Z,945.42
2016-03-29T02:43:03.589Z,945.48
2016-03-29T02:44:03.608Z,945.49
2016-03-29T02:45:03.627Z,945.53
2016-03-29T02:46:03.629Z,945.5
2016-03-29T02:47:03.646Z,945.52
2016-03-29T02:48:03.650Z,945.49
2016-03-29T02:49:03.668Z,945.5
2016-03-29T02:50:03.686Z,945.5
2016-03-29T02:51:03.705Z,945.58
2016-03-29T02:52:03.708Z,945.58
2016-03-29T02:53:03.726Z,945.61
2016-03-29T02:54:03.728Z,945.6
2016-03-29T02:55:03.746Z,945.66
2016-03-29T02:56:03.781Z,945.64
2016-03-29T02:57:03.768Z,945.63
2016-03-29T02:58:03.786Z,945.64
2016-03-29T02:59:03.804Z,945.68
2016-03-29T03:00:03.823Z,945.69
2016-03-29T03:01:03.826Z,945.68
2016-03-29T03:02:03.843Z,945.65
2016-03-29T03:03:03.862Z,945.67
2016-03-29T03:04:03.865Z,945.74
2016-03-29T03:05:03.898Z,945.73
2016-03-29T03:06:03.901Z,945.76
2016-03-29T03:07:03.904Z,945.73
2016-03-29T03:08:03.923Z,945.72
2016-03-29T03:09:03.941Z,945.71
2016-03-29T03:10:03.943Z,945.76
2016-03-29T03:11:03.961Z,945.84
2016-03-29T03:12:03.980Z,945.87
2016-03-29T03:13:03.982Z,945.86
2016-03-29T03:14:04.000Z,945.9
2016-03-29T03:15:04.019Z,945.99
2016-03-29T03:16:04.038Z,946
2016-03-29T03:17:04.055Z,946.14
2016-03-29T03:18:04.058Z,946.28
2016-03-29T03:19:04.077Z,946.15
2016-03-29T03:20:04.095Z,945.95
2016-03-29T03:21:04.098Z,945.8
2016-03-29T03:22:04.115Z,945.79
2016-03-29T03:23:04.119Z,945.89
2016-03-29T03:24:04.137Z,945.85
2016-03-29T03:25:04.155Z,946.01
2016-03-29T03:26:04.158Z,945.99
2016-03-29T03:27:04.192Z,945.82
2016-03-29T03:28:04.195Z,945.94
2016-03-29T03:29:04.212Z,946.03
2016-03-29T03:30:04.215Z,946.14
2016-03-29T03:31:04.234Z,946.12
2016-03-29T03:32:04.253Z,946.16
2016-03-29T03:33:04.255Z,946.2
2016-03-29T03:34:04.273Z,946.32
2016-03-29T03:35:04.292Z,946.33
2016-03-29T03:36:04.309Z,946.4
2016-03-29T03:37:04.313Z,946.29
2016-03-29T03:38:04.331Z,946.35
2016-03-29T03:39:04.350Z,946.42
2016-03-29T03:40:04.367Z,946.51
2016-03-29T03:41:04.386Z,946.48
2016-03-29T03:42:04.389Z,946.51
2016-03-29T03:43:04.407Z,946.57
2016-03-29T03:44:04.410Z,946.6
2016-03-29T03:45:04.427Z,946.61
2016-03-29T03:46:04.447Z,946.59
2016-03-29T03:47:04.449Z,946.7
2016-03-29T03:48:04.467Z,946.69
2016-03-29T03:49:04.486Z,946.66
2016-03-29T03:50:04.504Z,946.71
2016-03-29T03:51:04.507Z,946.72
2016-03-29T03:52:04.524Z,946.68
2016-03-29T03:53:04.544Z,946.69
2016-03-29T03:54:04.562Z,946.74
2016-03-29T03:55:04.564Z,946.74
2016-03-29T03:56:04.582Z,946.69
2016-03-29T03:57:04.601Z,946.74
2016-03-29T03:58:04.618Z,946.83
2016-03-29T03:59:04.622Z,946.74
2016-03-29T04:00:04.656Z,946.89
2016-03-29T04:01:04.659Z,946.92
2016-03-29T04:02:04.676Z,946.98
2016-03-29T04:03:04.679Z,946.95
2016-03-29T04:04:04.698Z,946.93
2016-03-29T04:05:04.716Z,946.9
2016-03-29T04:06:04.734Z,946.69
2016-03-29T04:07:04.736Z,946.68
2016-03-29T04:08:04.756Z,946.65
2016-03-29T04:09:04.773Z,946.57
2016-03-29T04:10:04.808Z,946.58
2016-03-29T04:11:04.795Z,946.6
2016-03-29T04:12:04.813Z,946.53
2016-03-29T04:13:04.831Z,946.46
2016-03-29T04:14:04.850Z,946.51
2016-03-29T04:15:04.868Z,946.52
2016-03-29T04:16:04.871Z,946.52
2016-03-29T04:17:04.888Z,946.69
2016-03-29T04:18:04.908Z,946.72
2016-03-29T04:19:04.925Z,946.73
2016-03-29T04:20:04.928Z,946.81
2016-03-29T04:21:04.947Z,946.82
2016-03-29T04:22:04.965Z,946.85
2016-03-29T04:23:04.983Z,946.91
2016-03-29T04:24:05.063Z,946.97
2016-03-29T04:25:05.017Z,947
2016-03-29T04:26:05.020Z,947.04
2016-03-29T04:27:05.023Z,947.09
2016-03-29T04:28:05.041Z,947.09
2016-03-29T04:29:05.060Z,947.13
2016-03-29T04:30:05.077Z,947.05
2016-03-29T04:31:05.096Z,947.04
2016-03-29T04:32:05.099Z,946.96
2016-03-29T04:33:05.117Z,946.93
2016-03-29T04:34:05.135Z,946.89
2016-03-29T04:35:05.154Z,946.9
2016-03-29T04:36:05.156Z,946.88
2016-03-29T04:37:05.175Z,946.87
2016-03-29T04:38:05.193Z,946.94
2016-03-29T04:39:05.211Z,946.99
2016-03-29T04:40:05.229Z,947.05
2016-03-29T04:41:05.232Z,947.06
2016-03-29T04:42:05.251Z,947.1
2016-03-29T04:43:05.269Z,947.1
2016-03-29T04:44:05.287Z,947.16
2016-03-29T04:45:05.289Z,947.21
2016-03-29T04:46:05.308Z,947.14
2016-03-29T04:47:05.327Z,947.21
2016-03-29T04:48:05.345Z,947.15
2016-03-29T04:49:05.363Z,947.19
2016-03-29T04:50:05.381Z,947.18
2016-03-29T04:51:05.384Z,947.16
2016-03-29T04:52:05.402Z,947.14
2016-03-29T04:53:05.421Z,947.13
2016-03-29T04:54:05.455Z,947.17
2016-03-29T04:55:05.442Z,947.29
2016-03-29T04:56:05.460Z,947.32
2016-03-29T04:57:05.479Z,947.4
2016-03-29T04:58:05.482Z,947.5
2016-03-29T04:59:05.500Z,947.44
2016-03-29T05:00:05.502Z,947.29
2016-03-29T05:01:05.521Z,947.16
2016-03-29T05:02:05.538Z,947.16
2016-03-29T05:03:05.557Z,947.22
2016-03-29T05:04:05.560Z,947.26
2016-03-29T05:05:05.578Z,947.26
2016-03-29T05:06:05.595Z,947.32
2016-03-29T05:07:05.615Z,947.36
2016-03-29T05:08:05.633Z,947.44
2016-03-29T05:09:05.636Z,947.43
2016-03-29T05:10:05.654Z,947.45
2016-03-29T05:11:05.673Z,947.38
2016-03-29T05:12:05.675Z,947.33
2016-03-29T05:13:05.692Z,947.29
2016-03-29T05:14:05.712Z,947.33
2016-03-29T05:15:05.730Z,947.31
2016-03-29T05:16:05.732Z,947.27
2016-03-29T05:17:05.750Z,947.33
2016-03-29T05:18:05.769Z,947.38
2016-03-29T05:19:05.788Z,947.4
2016-03-29T05:20:05.790Z,947.43
2016-03-29T05:21:05.809Z,947.55
2016-03-29T05:22:05.827Z,947.63
2016-03-29T05:23:05.830Z,947.74
2016-03-29T05:24:05.863Z,947.79
2016-03-29T05:25:05.866Z,947.92
2016-03-29T05:26:05.885Z,947.84
2016-03-29T05:27:05.887Z,947.89
2016-03-29T05:28:05.905Z,947.91
2016-03-29T05:29:05.924Z,948.02
2016-03-29T05:30:05.943Z,948.04
2016-03-29T05:31:05.946Z,948.05
2016-03-29T05:32:05.963Z,948.11
2016-03-29T05:33:05.982Z,948.07
2016-03-29T05:34:05.984Z,948.08
2016-03-29T05:35:06.002Z,947.99
2016-03-29T05:36:06.020Z,947.83
2016-03-29T05:37:06.040Z,947.79
2016-03-29T05:38:06.042Z,947.83
2016-03-29T05:39:06.059Z,947.8
2016-03-29T05:40:06.078Z,947.76
2016-03-29T05:41:06.081Z,947.92
2016-03-29T05:42:06.099Z,947.87
2016-03-29T05:43:06.117Z,947.73
2016-03-29T05:44:06.120Z,947.82
2016-03-29T05:45:06.138Z,947.79
2016-03-29T05:46:06.156Z,947.83
2016-03-29T05:47:06.159Z,947.74
2016-03-29T05:48:06.178Z,947.72
2016-03-29T05:49:06.196Z,947.72
2016-03-29T05:50:06.199Z,947.73
2016-03-29T05:51:06.216Z,947.8
2016-03-29T05:52:06.236Z,947.75
2016-03-29T05:53:06.238Z,947.8
2016-03-29T05:54:06.257Z,947.78
2016-03-29T05:55:06.275Z,947.8
2016-03-29T05:56:06.294Z,947.8
2016-03-29T05:57:06.296Z,947.82
2016-03-29T05:58:06.313Z,947.8
2016-03-29T05:59:06.348Z,947.8
2016-03-29T06:00:06.335Z,947.85
2016-03-29T06:01:06.368Z,947.83
2016-03-29T06:02:06.371Z,947.86
2016-03-29T06:03:06.374Z,947.78
2016-03-29T06:04:06.393Z,947.84
2016-03-29T06:05:06.412Z,947.89
2016-03-29T06:06:06.414Z,947.87
2016-03-29T06:07:06.432Z,947.86
2016-03-29T06:08:06.451Z,947.81
2016-03-29T06:09:06.453Z,947.77
2016-03-29T06:10:06.475Z,947.87
2016-03-29T06:11:06.477Z,947.96
2016-03-29T06:12:06.497Z,947.9
2016-03-29T06:13:06.515Z,947.88
2016-03-29T06:14:06.518Z,947.97
2016-03-29T06:15:06.536Z,947.95
2016-03-29T06:16:06.554Z,948.05
2016-03-29T06:17:06.557Z,948.09
2016-03-29T06:18:06.574Z,948.1
2016-03-29T06:19:06.594Z,948.11
2016-03-29T06:20:06.612Z,948.18
2016-03-29T06:21:06.615Z,948.21
2016-03-29T06:22:06.632Z,948.22
2016-03-29T06:23:06.651Z,948.3
2016-03-29T06:24:06.653Z,948.35
2016-03-29T06:25:06.672Z,948.44
2016-03-29T06:26:06.690Z,948.37
2016-03-29T06:27:06.693Z,948.42
2016-03-29T06:28:06.711Z,948.42
2016-03-29T06:29:06.729Z,948.38
2016-03-29T06:30:06.731Z,948.4
2016-03-29T06:31:06.751Z,948.44
2016-03-29T06:32:06.769Z,948.4
2016-03-29T06:33:06.772Z,948.42
2016-03-29T06:34:06.789Z,948.45
2016-03-29T06:35:06.808Z,948.47
2016-03-29T06:36:06.827Z,948.46
2016-03-29T06:37:06.829Z,948.44
2016-03-29T06:38:06.848Z,948.52
2016-03-29T06:39:06.866Z,948.5
2016-03-29T06:40:06.869Z,948.56
2016-03-29T06:41:06.886Z,948.47
2016-03-29T06:42:06.905Z,948.49
2016-03-29T06:43:06.908Z,948.44
2016-03-29T06:44:06.926Z,948.42
2016-03-29T06:45:06.944Z,948.39
2016-03-29T06:46:06.962Z,948.36
2016-03-29T06:47:06.966Z,948.28
2016-03-29T06:48:06.984Z,948.29
2016-03-29T06:49:07.002Z,948.26
2016-03-29T06:50:07.005Z,948.28
2016-03-29T06:51:07.023Z,948.3
2016-03-29T06:52:07.041Z,948.38
2016-03-29T06:53:07.060Z,948.7
2016-03-29T06:54:07.063Z,948.74
2016-03-29T06:55:07.072Z,949
2016-03-29T06:56:07.072Z,949
2016-03-29T06:57:07.075Z,948.81
2016-03-29T06:58:07.060Z,948.73
2016-03-29T06:59:07.062Z,948.61
2016-03-29T07:00:07.067Z,948.62
2016-03-29T07:01:07.079Z,948.55
2016-03-29T07:02:07.076Z,948.52
2016-03-29T07:03:07.087Z,948.51
2016-03-29T07:04:07.100Z,948.57
2016-03-29T07:05:07.114Z,948.63
2016-03-29T07:06:07.177Z,948.59
2016-03-29T07:07:07.146Z,948.62
2016-03-29T07:08:07.147Z,948.62
2016-03-29T07:09:07.164Z,948.59
2016-03-29T07:10:07.180Z,948.57
2016-03-29T07:11:07.198Z,948.6
2016-03-29T07:12:07.214Z,948.59
2016-03-29T07:13:07.232Z,948.58
2016-03-29T07:14:07.235Z,948.66
2016-03-29T07:15:07.252Z,948.66
2016-03-29T07:16:07.269Z,948.71
2016-03-29T07:17:07.288Z,948.69
2016-03-29T07:18:07.321Z,948.73
2016-03-29T07:19:07.324Z,948.73
2016-03-29T07:20:07.342Z,948.73
2016-03-29T07:21:07.360Z,948.75
2016-03-29T07:22:07.379Z,948.77
2016-03-29T07:23:07.381Z,948.79
2016-03-29T07:24:07.399Z,948.82
2016-03-29T07:25:07.418Z,948.84
2016-03-29T07:26:07.437Z,948.84
2016-03-29T07:27:07.455Z,948.92
2016-03-29T07:28:07.473Z,948.94
2016-03-29T07:29:07.491Z,948.97
2016-03-29T07:30:07.494Z,949.01
2016-03-29T07:31:07.528Z,949.03
2016-03-29T07:32:07.530Z,949.07
2016-03-29T07:33:07.549Z,949.11
2016-03-29T07:34:07.567Z,949.13
2016-03-29T07:35:07.585Z,949.26
2016-03-29T07:36:07.604Z,949.27
2016-03-29T07:37:07.607Z,949.24
2016-03-29T07:38:07.625Z,949.39
2016-03-29T07:39:07.644Z,949.13
2016-03-29T07:40:07.677Z,949.38
2016-03-29T07:41:07.680Z,949.13
2016-03-29T07:42:07.699Z,949.15
2016-03-29T07:43:07.716Z,949.18
2016-03-29T07:44:07.735Z,949.18
2016-03-29T07:45:07.753Z,949.24
2016-03-29T07:46:07.756Z,949.17
2016-03-29T07:47:07.774Z,949.41
2016-03-29T07:48:07.793Z,949.26
2016-03-29T07:49:07.810Z,949.29
2016-03-29T07:50:07.830Z,949.39
2016-03-29T07:51:07.863Z,949.47
2016-03-29T07:52:07.866Z,949.48
2016-03-29T07:53:07.884Z,949.46
2016-03-29T07:54:07.904Z,949.19
2016-03-29T07:55:07.921Z,949.37
2016-03-29T07:56:07.939Z,949.45
2016-03-29T07:57:07.958Z,949.57
2016-03-29T07:58:07.976Z,949.66
2016-03-29T07:59:07.995Z,949.62
2016-03-29T08:00:08.013Z,949.52
2016-03-29T08:01:08.031Z,949.42
2016-03-29T08:02:08.050Z,949.41
2016-03-29T08:03:08.068Z,949.38
2016-03-29T08:04:08.086Z,949.4
2016-03-29T08:05:08.104Z,949.5
2016-03-29T08:06:08.139Z,949.58
2016-03-29T08:07:08.157Z,949.59
2016-03-29T08:08:08.175Z,949.71
2016-03-29T08:09:08.194Z,949.76
2016-03-29T08:10:08.243Z,949.7
2016-03-29T08:11:08.245Z,949.59
2016-03-29T08:12:08.264Z,949.6
2016-03-29T08:13:08.282Z,949.68
2016-03-29T08:14:08.316Z,949.79
2016-03-29T08:15:08.335Z,949.7
2016-03-29T08:16:08.353Z,949.66
2016-03-29T08:17:08.372Z,949.63
2016-03-29T08:18:08.405Z,949.73
2016-03-29T08:19:08.424Z,949.75
2016-03-29T08:20:08.441Z,949.67
2016-03-29T08:21:08.476Z,949.61
2016-03-29T08:22:08.494Z,949.65
2016-03-29T08:23:08.528Z,949.64
2016-03-29T08:24:08.547Z,949.7
2016-03-29T08:25:08.565Z,949.64
2016-03-29T08:26:08.583Z,949.54
2016-03-29T08:27:08.601Z,949.66
2016-03-29T08:28:08.635Z,949.62
2016-03-29T08:29:08.654Z,949.58
2016-03-29T08:30:08.672Z,949.55
2016-03-29T08:31:08.690Z,949.59
2016-03-29T08:32:08.724Z,949.52
2016-03-29T08:33:08.742Z,949.54
2016-03-29T08:34:08.761Z,949.5
2016-03-29T08:35:08.779Z,949.57
2016-03-29T08:36:08.798Z,949.56
2016-03-29T08:37:08.816Z,949.58
2016-03-29T08:38:08.850Z,949.59
2016-03-29T08:39:08.868Z,949.6
2016-03-29T08:40:08.886Z,949.57
2016-03-29T08:41:08.905Z,949.55
2016-03-29T08:42:08.923Z,949.53
2016-03-29T08:43:08.956Z,949.58
2016-03-29T08:44:08.975Z,949.54
2016-03-29T08:45:08.993Z,949.58
2016-03-29T08:46:09.012Z,949.53
2016-03-29T08:47:09.030Z,949.49
2016-03-29T08:48:09.049Z,949.55
2016-03-29T08:49:09.067Z,949.55
2016-03-29T08:50:09.100Z,949.6
2016-03-29T08:51:09.119Z,949.51
2016-03-29T08:52:09.137Z,949.5
2016-03-29T08:53:09.156Z,949.56
2016-03-29T08:54:09.174Z,949.63
2016-03-29T08:55:09.193Z,949.56
2016-03-29T08:56:09.211Z,949.53
2016-03-29T08:57:09.244Z,949.54
2016-03-29T08:58:09.263Z,949.58
2016-03-29T08:59:09.282Z,949.57
2016-03-29T09:00:09.299Z,949.54
2016-03-29T09:01:09.318Z,949.52
2016-03-29T09:02:09.336Z,949.56
2016-03-29T09:03:09.354Z,949.57
2016-03-29T09:04:09.373Z,949.61
2016-03-29T09:05:09.391Z,949.64
2016-03-29T09:06:09.411Z,949.56
2016-03-29T09:07:09.429Z,949.54
2016-03-29T09:08:09.463Z,949.67
2016-03-29T09:09:09.481Z,949.71
2016-03-29T09:10:09.499Z,949.77
2016-03-29T09:11:09.518Z,949.72
2016-03-29T09:12:09.535Z,949.88
2016-03-29T09:13:09.554Z,949.8
2016-03-29T09:14:09.572Z,949.76
2016-03-29T09:15:09.590Z,949.77
2016-03-29T09:16:09.609Z,949.76
2016-03-29T09:17:09.628Z,949.79
2016-03-29T09:18:09.646Z,949.76
2016-03-29T09:19:09.664Z,949.85
2016-03-29T09:20:09.682Z,949.75
2016-03-29T09:21:09.700Z,949.72
2016-03-29T09:22:09.720Z,949.7
2016-03-29T09:23:09.737Z,949.78
2016-03-29T09:24:09.756Z,949.83
2016-03-29T09:25:09.775Z,949.88
2016-03-29T09:26:09.823Z,949.85
2016-03-29T09:27:09.826Z,949.76
2016-03-29T09:28:09.844Z,949.84
2016-03-29T09:29:09.863Z,949.76
2016-03-29T09:30:09.880Z,949.8
2016-03-29T09:31:09.899Z,949.84
2016-03-29T09:32:09.918Z,949.76
2016-03-29T09:33:09.936Z,949.79
2016-03-29T09:34:09.955Z,949.86
2016-03-29T09:35:09.989Z,949.79
2016-03-29T09:36:09.991Z,949.89
2016-03-29T09:37:10.010Z,949.84
2016-03-29T09:38:10.027Z,949.88
2016-03-29T09:39:10.062Z,949.84
2016-03-29T09:40:10.080Z,949.75
2016-03-29T09:41:10.113Z,949.75
2016-03-29T09:42:10.148Z,949.7
2016-03-29T09:43:10.134Z,949.71
2016-03-29T09:44:10.153Z,949.76
2016-03-29T09:45:10.171Z,949.73
2016-03-29T09:46:10.195Z,949.76
2016-03-29T09:47:10.213Z,949.69
2016-03-29T09:48:10.231Z,949.71
2016-03-29T09:49:10.265Z,949.72
2016-03-29T09:50:10.267Z,949.71
2016-03-29T09:51:10.302Z,949.67
2016-03-29T09:52:10.320Z,949.74
2016-03-29T09:53:10.338Z,949.74
2016-03-29T09:54:10.357Z,949.69
2016-03-29T09:55:10.375Z,949.72
2016-03-29T09:56:10.394Z,949.63
2016-03-29T09:57:10.444Z,949.75
2016-03-29T09:58:10.446Z,949.69
2016-03-29T09:59:10.464Z,949.77
2016-03-29T10:00:10.482Z,949.75
2016-03-29T10:01:10.500Z,949.78
2016-03-29T10:02:10.518Z,949.75
2016-03-29T10:03:10.537Z,949.73
2016-03-29T10:04:10.571Z,949.75
2016-03-29T10:05:10.589Z,949.71
2016-03-29T10:06:10.608Z,949.85
2016-03-29T10:07:10.626Z,949.88
2016-03-29T10:08:10.660Z,949.87
2016-03-29T10:09:10.679Z,949.84
2016-03-29T10:10:10.696Z,949.97
2016-03-29T10:11:10.715Z,950.02
2016-03-29T10:12:10.764Z,949.87
2016-03-29T10:13:10.768Z,949.79
2016-03-29T10:14:10.785Z,949.83
2016-03-29T10:15:10.804Z,949.89
2016-03-29T10:16:10.838Z,949.8
2016-03-29T10:17:10.856Z,949.81
2016-03-29T10:18:10.875Z,949.81
2016-03-29T10:19:10.909Z,949.81
2016-03-29T10:20:10.926Z,949.82
2016-03-29T10:21:10.961Z,949.88
2016-03-29T10:22:10.978Z,949.85
2016-03-29T10:23:10.997Z,949.76
2016-03-29T10:24:11.016Z,949.83
2016-03-29T10:25:11.050Z,949.77
2016-03-29T10:26:11.084Z,949.71
2016-03-29T10:27:11.133Z,949.84
2016-03-29T10:28:11.120Z,949.85
2016-03-29T10:29:11.138Z,949.82
2016-03-29T10:30:11.157Z,950
2016-03-29T10:31:11.190Z,949.89
2016-03-29T10:32:11.224Z,950
2016-03-29T10:33:11.227Z,949.94
2016-03-29T10:34:11.260Z,949.93
2016-03-29T10:35:11.279Z,950.01
2016-03-29T10:36:11.313Z,950.05
2016-03-29T10:37:11.331Z,950.05
2016-03-29T10:38:11.349Z,950.05
2016-03-29T10:39:11.384Z,950.04
2016-03-29T10:40:11.402Z,949.89
2016-03-29T10:41:11.421Z,949.96
2016-03-29T10:42:11.485Z,949.85
2016-03-29T10:43:11.473Z,949.86
2016-03-29T10:44:11.490Z,949.89
2016-03-29T10:45:11.509Z,949.74
2016-03-29T10:46:11.590Z,949.72
2016-03-29T10:47:11.561Z,949.82
2016-03-29T10:48:11.580Z,949.76
2016-03-29T10:49:11.614Z,949.86
2016-03-29T10:50:11.631Z,949.79
2016-03-29T10:51:11.666Z,949.87
2016-03-29T10:52:11.684Z,949.78
2016-03-29T10:53:11.703Z,949.73
2016-03-29T10:54:11.721Z,949.83
2016-03-29T10:55:11.756Z,949.94
2016-03-29T10:56:11.773Z,949.83
2016-03-29T10:57:11.792Z,949.78
2016-03-29T10:58:11.841Z,949.74
2016-03-29T10:59:11.845Z,949.93
2016-03-29T11:00:11.863Z,949.83
2016-03-29T11:01:11.897Z,949.75
2016-03-29T11:02:11.914Z,949.89
2016-03-29T11:03:11.933Z,949.72
2016-03-29T11:04:11.967Z,949.67
2016-03-29T11:05:11.985Z,949.64
2016-03-29T11:06:12.019Z,949.71
2016-03-29T11:07:12.037Z,949.77
2016-03-29T11:08:12.055Z,949.95
2016-03-29T11:09:12.074Z,949.69
2016-03-29T11:10:12.108Z,949.87
2016-03-29T11:11:12.142Z,949.89
2016-03-29T11:12:12.160Z,949.72
2016-03-29T11:13:12.179Z,949.68
2016-03-29T11:14:12.196Z,949.59
2016-03-29T11:15:12.215Z,949.61
2016-03-29T11:16:12.248Z,949.66
2016-03-29T11:17:12.283Z,949.6
2016-03-29T11:18:12.301Z,949.66
2016-03-29T11:19:12.320Z,949.61
2016-03-29T11:20:12.338Z,949.63
2016-03-29T11:21:12.372Z,949.55
2016-03-29T11:22:12.390Z,949.55
2016-03-29T11:23:12.409Z,949.57
2016-03-29T11:24:12.442Z,949.52
2016-03-29T11:25:12.461Z,949.55
2016-03-29T11:26:12.479Z,949.6
2016-03-29T11:27:12.514Z,949.51
2016-03-29T11:28:12.532Z,949.48
2016-03-29T11:29:12.566Z,949.56
2016-03-29T11:30:12.584Z,949.44
2016-03-29T11:31:12.602Z,949.79
2016-03-29T11:32:12.620Z,949.54
2016-03-29T11:33:12.655Z,949.46
2016-03-29T11:34:12.672Z,949.45
2016-03-29T11:35:12.691Z,949.47
2016-03-29T11:36:12.724Z,949.54
2016-03-29T11:37:12.744Z,949.49
2016-03-29T11:38:12.761Z,949.58
2016-03-29T11:39:12.796Z,949.41
2016-03-29T11:40:12.814Z,949.45
2016-03-29T11:41:12.832Z,949.4
2016-03-29T11:42:12.882Z,949.45
2016-03-29T11:43:12.884Z,949.47
2016-03-29T11:44:12.902Z,949.51
2016-03-29T11:45:12.951Z,949.39
2016-03-29T11:46:12.970Z,949.42
2016-03-29T11:47:12.989Z,949.45
2016-03-29T11:48:13.022Z,949.53
2016-03-29T11:49:13.040Z,949.42
2016-03-29T11:50:13.059Z,949.49
2016-03-29T11:51:13.078Z,949.42
2016-03-29T11:52:13.205Z,949.34
2016-03-29T11:53:13.130Z,949.51
2016-03-29T11:54:13.164Z,949.48
2016-03-29T11:55:13.182Z,949.59
2016-03-29T11:56:13.217Z,949.37
2016-03-29T11:57:13.250Z,949.41
2016-03-29T11:58:13.237Z,949.45
2016-03-29T11:59:13.271Z,949.34
2016-03-29T12:00:13.305Z,949.3
2016-03-29T12:01:13.323Z,949.36
2016-03-29T12:02:13.358Z,949.37
2016-03-29T12:03:13.375Z,949.48
2016-03-29T12:04:13.394Z,949.44
2016-03-29T12:05:13.427Z,949.32
2016-03-29T12:06:13.446Z,949.24
2016-03-29T12:07:13.477Z,949.21
2016-03-29T12:08:13.496Z,949.28
2016-03-29T12:09:13.513Z,949.18
2016-03-29T12:10:13.548Z,949.52
2016-03-29T12:11:13.566Z,949.26
2016-03-29T12:12:13.600Z,949.39
2016-03-29T12:13:13.634Z,949.13
2016-03-29T12:14:13.651Z,949.2
2016-03-29T12:15:13.670Z,949.27
2016-03-29T12:16:13.705Z,949.31
2016-03-29T12:17:13.723Z,949.21
2016-03-29T12:18:13.741Z,949.25
2016-03-29T12:19:13.775Z,949.27
2016-03-29T12:20:13.792Z,949.34
2016-03-29T12:21:13.811Z,949.24
2016-03-29T12:22:13.845Z,949.07
2016-03-29T12:23:13.864Z,949.19
2016-03-29T12:24:13.898Z,949.24
2016-03-29T12:25:13.917Z,949.19
2016-03-29T12:26:13.934Z,949.49
2016-03-29T12:27:13.953Z,949.34
2016-03-29T12:28:13.987Z,949.17
2016-03-29T12:29:14.005Z,949.26
2016-03-29T12:30:14.039Z,949.26
2016-03-29T12:31:14.058Z,949.25